Terminal Aerodrome Forecast
Issued by NWS Twin Cities, MN

Home | Current Version | Previous Version | Graphics & Text | Print | Product List | Glossary On
Versions: 1 2 3 4 5 6 7 8 9 10 11 12 13 14 15 16 17
000
FTUS43 KMPX 162100 AAA
TAFEAU
TAF AMD
KEAU 162139Z 1622/1718 07012KT P6SM SCT050 OVC080
      TEMPO 1622/1702 5SM -RASN BR SCT020 BKN040
     FM170200 08010KT 4SM -RASN BR SCT015 BKN030
      TEMPO 1702/1705 1SM -SN BR OVC009
     FM170500 01007KT 3SM -SN BR OVC015
      TEMPO 1705/1708 1SM -SN BR OVC008
     FM171000 32008KT 5SM BR OVC012
     FM171400 32010KT P6SM OVC015=

USA.gov is the U.S. government's official web portal to all federal, state and local government web resources and services.